6D6 weather

Greenville Municipal Airport
Greenville, Michigan, United States

Public forecast

Using degrees Fahrenheit for public forecast. Weather courtesy of forecast.io.

Closest aviation weather report (METAR) to Greenville Municipal Airport

Closest report is Ionia County Airport, 14.9 nm (27.6 km) SE. Retrieved 2019/10/23 22:39 UTC (0 seconds ago):

KY70 232239Z AUTO 23006KT 10SM CLR 10/01 A2995 RMK AO2 T01020007

Closest aviation forecast (TAF) to Greenville Municipal Airport

Closest forecast is Gerald R. Ford International Airport, 19.6 nm (36.4 km) SW. Retrieved 2019/10/23 18:42 UTC (3 hours ago):

TAF KGRR 231740Z 2318/2418 25015G26KT P6SM FEW030 FM232200 VRB05KT P6SM BKN120 FM240500 VRB05KT 6SM -RA OVC025 FM240900 30007KT P6SM VCSH BKN035 FM241300 29010KT P6SM OVC035